Time;durP1;ratioP1;P1;durP2;ratioP2;P2;SDS_P1;SDS_P2;PMS_P1;PMS_P2;Temp;Humidity;BMP_temperature;BMP_pressure;BME280_temperature;BME280_humidity;BME280_pressure;Samples;Min_cycle;Max_cycle;Signal;HPM_P1;HPM_P2
2021/12/10 00:00:47;;;;;;;17.77;9.95;;;0.40;99.90;;;;;;5011630;28;20042;-74
2021/12/10 00:03:22;;;;;;;14.13;8.73;;;0.40;99.90;;;;;;5010266;28;20198;-74
2021/12/10 00:05:56;;;;;;;14.80;9.85;;;0.40;99.90;;;;;;5028140;28;20129;-74
2021/12/10 00:08:25;;;;;;;13.02;8.25;;;0.40;99.90;;;;;;5011760;28;20172;-74
2021/12/10 00:11:00;;;;;;;13.68;7.72;;;0.40;99.90;;;;;;4996213;28;20463;-74
2021/12/10 00:13:27;;;;;;;15.82;9.18;;;0.40;99.90;;;;;;5027902;28;20576;-74
2021/12/10 00:15:55;;;;;;;11.45;8.40;;;0.40;99.90;;;;;;5011766;28;20125;-74
2021/12/10 00:18:30;;;;;;;13.52;8.68;;;0.40;99.90;;;;;;5011417;28;20152;-74
2021/12/10 00:21:05;;;;;;;15.23;8.73;;;0.30;99.90;;;;;;5026868;28;20069;-74
2021/12/10 00:23:37;;;;;;;12.77;8.02;;;0.30;99.90;;;;;;5027621;28;20046;-74
2021/12/10 00:26:06;;;;;;;13.27;8.48;;;0.20;99.90;;;;;;5027242;28;20122;-74
2021/12/10 00:28:39;;;;;;;13.20;8.07;;;0.20;99.90;;;;;;5012647;28;20117;-74
2021/12/10 00:31:32;;;;;;;13.50;8.13;;;0.20;99.90;;;;;;5011132;28;20038;-74
2021/12/10 00:34:12;;;;;;;15.90;8.40;;;0.10;99.90;;;;;;5011407;28;20070;-74
2021/12/10 00:36:40;;;;;;;11.32;7.70;;;0.10;99.90;;;;;;5012706;28;20066;-74
2021/12/10 00:39:20;;;;;;;14.70;8.07;;;0.00;99.90;;;;;;5026982;28;20038;-74
2021/12/10 00:41:53;;;;;;;9.90;6.95;;;0.00;99.90;;;;;;5010880;28;20128;-74
2021/12/10 00:44:20;;;;;;;11.10;7.32;;;0.00;99.90;;;;;;5027446;28;20068;-74
2021/12/10 00:46:47;;;;;;;11.77;6.78;;;0.00;99.90;;;;;;5027424;28;20478;-74
2021/12/10 00:49:19;;;;;;;10.82;6.47;;;0.00;99.90;;;;;;5027045;28;20396;-74
2021/12/10 00:51:51;;;;;;;10.25;6.30;;;0.00;99.90;;;;;;5010623;28;20129;-74
2021/12/10 00:54:23;;;;;;;8.85;5.45;;;0.00;99.90;;;;;;5010220;28;20050;-74
2021/12/10 00:56:50;;;;;;;12.90;6.65;;;0.00;99.90;;;;;;5011095;28;20140;-74
2021/12/10 00:59:19;;;;;;;8.45;5.07;;;0.00;99.90;;;;;;5012085;28;20125;-74
2021/12/10 01:01:52;;;;;;;11.68;5.75;;;-0.10;99.90;;;;;;5010583;28;20053;-74
2021/12/10 01:04:29;;;;;;;10.18;6.07;;;-0.10;99.90;;;;;;5026742;28;20128;-74
2021/12/10 01:06:59;;;;;;;10.68;5.63;;;-0.10;99.90;;;;;;5027341;28;20156;-74
2021/12/10 01:09:35;;;;;;;9.48;5.10;;;-0.10;99.90;;;;;;5026485;28;20488;-74
2021/12/10 01:12:15;;;;;;;9.10;5.20;;;-0.10;99.90;;;;;;5010389;28;20045;-74
2021/12/10 01:28:59;;;;;;;7.50;4.35;;;-0.40;99.90;;;;;;5010515;28;20046;-74
2021/12/10 01:31:31;;;;;;;6.90;4.75;;;-0.50;99.90;;;;;;5010005;28;20408;-74
2021/12/10 01:33:58;;;;;;;8.20;4.38;;;-0.60;99.90;;;;;;5011855;28;20124;-74
2021/12/10 01:36:30;;;;;;;7.05;3.80;;;-0.60;99.90;;;;;;5027525;28;20041;-74
2021/12/10 01:39:10;;;;;;;7.78;3.65;;;-0.60;99.90;;;;;;5030478;28;20496;-74
2021/12/10 01:41:53;;;;;;;5.95;3.97;;;-0.60;99.90;;;;;;5014115;28;20046;-73
2021/12/10 01:44:31;;;;;;;5.28;3.28;;;-0.60;99.90;;;;;;4998829;28;20463;-74
2021/12/10 01:47:05;;;;;;;6.60;3.75;;;-0.70;99.90;;;;;;5015581;28;20129;-73
2021/12/10 01:49:32;;;;;;;5.63;3.45;;;-0.70;99.90;;;;;;5030763;28;20172;-73
2021/12/10 01:52:06;;;;;;;7.47;3.40;;;-0.70;99.90;;;;;;5014094;28;20464;-73
2021/12/10 01:54:45;;;;;;;7.30;3.25;;;-0.80;99.90;;;;;;5014333;28;20157;-74
2021/12/10 01:57:18;;;;;;;5.30;2.88;;;-0.80;99.90;;;;;;5015730;28;20496;-73
2021/12/10 01:59:51;;;;;;;6.10;2.95;;;-0.80;99.90;;;;;;5013679;28;20136;-74
2021/12/10 02:02:29;;;;;;;7.10;2.75;;;-0.80;99.90;;;;;;5014801;28;20052;-74
2021/12/10 02:05:00;;;;;;;4.93;3.10;;;-0.80;99.90;;;;;;5014541;28;20560;-74
2021/12/10 02:07:33;;;;;;;4.60;2.63;;;-0.90;99.90;;;;;;5013314;28;20236;-73
2021/12/10 02:10:07;;;;;;;4.40;2.45;;;-0.90;99.90;;;;;;5029165;28;20509;-73
2021/12/10 02:12:34;;;;;;;6.45;2.55;;;-0.90;99.90;;;;;;5013195;28;20081;-73
2021/12/10 02:15:06;;;;;;;7.53;2.40;;;-0.90;99.90;;;;;;5013203;28;20042;-73
2021/12/10 02:17:37;;;;;;;8.13;2.63;;;-1.00;99.90;;;;;;5029458;28;20140;-73
2021/12/10 02:20:31;;;;;;;7.07;3.03;;;-1.00;99.90;;;;;;5014135;28;20152;-73
2021/12/10 02:23:07;;;;;;;4.90;2.40;;;-1.00;99.90;;;;;;5013073;28;20136;-73
2021/12/10 02:25:37;;;;;;;5.57;2.30;;;-1.00;99.90;;;;;;5014592;28;20117;-73
2021/12/10 02:28:10;;;;;;;7.55;2.22;;;-1.10;99.90;;;;;;5013350;28;20148;-73
2021/12/10 02:30:44;;;;;;;3.45;2.08;;;-1.20;99.90;;;;;;5014389;28;20068;-74
2021/12/10 02:33:16;;;;;;;3.15;1.92;;;-1.20;99.90;;;;;;5029363;28;20520;-73
2021/12/10 02:35:48;;;;;;;3.42;2.10;;;-1.20;99.90;;;;;;5013676;28;20064;-74
2021/12/10 02:38:20;;;;;;;3.13;1.80;;;-1.20;99.90;;;;;;5014639;28;20121;-74
2021/12/10 02:40:49;;;;;;;3.95;2.00;;;-1.20;99.90;;;;;;5028895;28;20481;-72
2021/12/10 02:43:23;;;;;;;3.50;2.13;;;-1.20;99.90;;;;;;5012701;28;20046;-73
2021/12/10 02:45:53;;;;;;;4.38;2.05;;;-1.20;99.90;;;;;;5029173;28;20097;-74
2021/12/10 02:48:26;;;;;;;4.88;1.85;;;-1.20;99.90;;;;;;5013123;28;20121;-74
2021/12/10 02:50:55;;;;;;;5.63;2.30;;;-1.20;99.90;;;;;;5012393;28;20050;-74
2021/12/10 02:53:30;;;;;;;6.35;2.40;;;-1.20;99.90;;;;;;4997666;28;20133;-74
2021/12/10 02:56:03;;;;;;;5.07;1.95;;;-1.20;99.90;;;;;;5013368;28;20052;-74
2021/12/10 02:58:35;;;;;;;3.20;2.70;;;-1.20;99.90;;;;;;5028994;28;20038;-73
2021/12/10 03:01:17;;;;;;;3.40;2.50;;;-1.20;99.90;;;;;;5013797;28;20104;-74
2021/12/10 03:03:44;;;;;;;6.32;2.70;;;-1.30;99.90;;;;;;5014620;28;20448;-74
2021/12/10 03:06:17;;;;;;;4.18;2.80;;;-1.30;99.90;;;;;;5028815;28;20186;-74
2021/12/10 03:08:51;;;;;;;4.68;2.20;;;-1.30;99.90;;;;;;5013327;28;20400;-74
2021/12/10 03:11:22;;;;;;;8.45;3.42;;;-1.30;99.90;;;;;;5029075;28;20137;-74
2021/12/10 03:13:54;;;;;;;7.50;3.47;;;-1.30;99.90;;;;;;5012790;28;20459;-73
2021/12/10 03:16:26;;;;;;;5.68;3.00;;;-1.30;99.90;;;;;;5012845;28;20046;-74
2021/12/10 03:18:58;;;;;;;5.47;2.08;;;-1.30;99.90;;;;;;5013905;28;20128;-74
2021/12/10 03:21:29;;;;;;;4.10;2.63;;;-1.30;99.90;;;;;;5012276;28;20050;-74
2021/12/10 03:24:01;;;;;;;5.07;2.53;;;-1.30;99.90;;;;;;5012671;28;20049;-71
2021/12/10 03:26:34;;;;;;;5.28;3.22;;;-1.30;99.90;;;;;;5012546;28;20136;-74
2021/12/10 03:29:07;;;;;;;5.05;2.70;;;-1.30;99.90;;;;;;5012530;28;20572;-74
2021/12/10 03:31:34;;;;;;;7.95;2.97;;;-1.30;99.90;;;;;;5028626;28;20097;-74
2021/12/10 03:34:02;;;;;;;9.52;4.97;;;-1.30;99.90;;;;;;5028826;28;20192;-74
2021/12/10 03:36:34;;;;;;;8.23;3.90;;;-1.30;99.90;;;;;;5012482;28;20774;-74
2021/12/10 03:39:02;;;;;;;5.60;3.40;;;-1.40;99.90;;;;;;5013542;28;20452;-74
2021/12/10 03:41:29;;;;;;;5.70;3.25;;;-1.40;99.90;;;;;;5028262;28;20128;-74
2021/12/10 03:44:01;;;;;;;3.42;2.50;;;-1.40;99.90;;;;;;5027899;28;20132;-73
2021/12/10 03:46:27;;;;;;;3.35;2.08;;;-1.50;99.90;;;;;;5012168;28;20419;-74
2021/12/10 03:49:03;;;;;;;4.20;2.50;;;-1.50;99.90;;;;;;5012007;28;20073;-73
2021/12/10 03:51:36;;;;;;;6.70;2.55;;;-1.40;99.90;;;;;;5011780;28;20049;-74
2021/12/10 03:54:09;;;;;;;3.85;2.15;;;-1.50;99.90;;;;;;5028509;28;20489;-74
2021/12/10 03:56:38;;;;;;;5.65;2.83;;;-1.50;99.90;;;;;;5012605;28;20450;-73
2021/12/10 03:59:11;;;;;;;6.95;2.30;;;-1.60;99.90;;;;;;5012969;28;20133;-74
2021/12/10 04:01:46;;;;;;;3.83;1.75;;;-1.70;99.90;;;;;;4995333;28;20140;-74
2021/12/10 04:04:26;;;;;;;6.10;2.25;;;-1.70;99.90;;;;;;5028398;28;20052;-74
2021/12/10 04:07:02;;;;;;;3.78;1.90;;;-1.70;99.90;;;;;;5013046;28;20038;-74
2021/12/10 04:09:35;;;;;;;5.55;2.00;;;-1.70;99.90;;;;;;5013041;28;20069;-73
2021/12/10 04:12:04;;;;;;;3.70;2.05;;;-1.70;99.90;;;;;;5027696;28;20060;-73
2021/12/10 04:14:31;;;;;;;5.85;1.90;;;-1.70;99.90;;;;;;5029507;28;20099;-73
2021/12/10 04:17:04;;;;;;;3.65;2.00;;;-1.70;99.90;;;;;;5013788;28;20064;-74
2021/12/10 04:19:38;;;;;;;4.47;2.00;;;-1.80;99.90;;;;;;5021314;28;20055;-74
2021/12/10 04:22:08;;;;;;;4.07;1.90;;;-1.80;99.90;;;;;;5026280;28;20453;-72
2021/12/10 04:24:37;;;;;;;3.30;2.03;;;-1.80;99.90;;;;;;5012921;28;20396;-74
2021/12/10 04:27:12;;;;;;;7.53;2.30;;;-1.80;99.90;;;;;;5036526;28;20080;-73
2021/12/10 04:29:47;;;;;;;4.15;2.40;;;-1.80;99.90;;;;;;5028461;28;20579;-74
2021/12/10 04:32:14;;;;;;;5.45;2.63;;;-1.80;99.90;;;;;;5030430;28;20136;-74
2021/12/10 04:34:47;;;;;;;10.05;2.53;;;-1.90;99.90;;;;;;5031286;28;20395;-72
2021/12/10 04:37:13;;;;;;;11.32;3.08;;;-1.90;99.90;;;;;;5014704;28;20483;-74
2021/12/10 04:39:47;;;;;;;4.43;2.38;;;-1.90;99.90;;;;;;5030891;28;20049;-73
2021/12/10 04:42:24;;;;;;;2.50;1.67;;;-1.90;99.90;;;;;;5028089;28;20456;-73
2021/12/10 04:44:57;;;;;;;4.68;2.08;;;-2.00;99.90;;;;;;5017974;28;20044;-73
2021/12/10 04:47:31;;;;;;;6.57;2.05;;;-2.00;99.90;;;;;;5050511;28;20039;-74
2021/12/10 04:50:04;;;;;;;;;;;-2.00;99.90;;;;;;5050931;28;20059;-74
2021/12/10 04:52:37;;;;;;;2.90;1.85;;;-2.00;99.90;;;;;;5040417;28;19927;-73
2021/12/10 04:55:07;;;;;;;5.60;2.45;;;-1.80;99.90;;;;;;5013100;28;20132;-73
2021/12/10 04:57:34;;;;;;;12.93;5.80;;;-1.30;99.90;;;;;;5036373;28;20111;-73
2021/12/10 05:00:11;;;;;;;14.88;6.20;;;-1.10;99.90;;;;;;5013995;28;20045;-73
2021/12/10 05:02:38;;;;;;;11.25;4.80;;;-1.20;99.90;;;;;;5028696;28;20069;-73
2021/12/10 05:05:10;;;;;;;9.13;4.35;;;-1.40;99.90;;;;;;5028821;28;20122;-74
2021/12/10 05:07:43;;;;;;;10.50;4.60;;;-1.60;99.90;;;;;;5029725;28;20037;-72
2021/12/10 05:10:18;;;;;;;8.93;5.05;;;-1.70;99.90;;;;;;5031234;28;20060;-74
2021/12/10 05:12:45;;;;;;;18.27;6.28;;;-1.80;99.90;;;;;;5012896;28;20076;-74
2021/12/10 05:15:16;;;;;;;11.68;6.00;;;-1.90;99.90;;;;;;5012095;28;20581;-73
2021/12/10 05:17:50;;;;;;;12.02;5.68;;;-1.90;99.90;;;;;;5029947;28;20408;-73
2021/12/10 05:20:37;;;;;;;7.95;4.10;;;-2.00;99.90;;;;;;5028686;28;20124;-75
2021/12/10 05:23:09;;;;;;;5.05;2.85;;;-2.10;99.90;;;;;;5029554;28;20137;-73
2021/12/10 05:25:42;;;;;;;6.20;3.67;;;-2.30;99.90;;;;;;5029281;28;20540;-73
2021/12/10 05:28:14;;;;;;;5.95;3.53;;;-2.40;99.90;;;;;;5029309;28;20124;-73
2021/12/10 05:30:41;;;;;;;8.30;4.10;;;-2.40;99.90;;;;;;5029025;28;20128;-73
2021/12/10 05:33:14;;;;;;;5.32;3.17;;;-2.50;99.90;;;;;;5028992;28;20072;-73
2021/12/10 05:35:41;;;;;;;6.13;3.70;;;-2.60;99.90;;;;;;5027509;28;20121;-73
2021/12/10 05:38:17;;;;;;;9.45;4.55;;;-2.60;99.90;;;;;;5029451;28;20127;-73
2021/12/10 05:40:51;;;;;;;11.43;6.05;;;-2.70;99.90;;;;;;5028091;28;20069;-73
2021/12/10 05:43:23;;;;;;;10.05;5.72;;;-2.70;99.90;;;;;;5030775;28;20083;-72
2021/12/10 05:45:55;;;;;;;13.40;5.90;;;-2.80;99.90;;;;;;5028921;28;20103;-73
2021/12/10 05:48:27;;;;;;;11.32;6.60;;;-2.90;99.90;;;;;;5029369;28;20116;-73
2021/12/10 05:50:59;;;;;;;11.20;6.55;;;-2.80;99.90;;;;;;5029557;28;20559;-73
2021/12/10 05:53:26;;;;;;;12.85;6.65;;;-2.80;99.90;;;;;;5027153;28;20095;-71
2021/12/10 05:55:58;;;;;;;14.77;8.20;;;-2.80;99.90;;;;;;5011637;28;20399;-73
2021/12/10 05:58:25;;;;;;;16.13;9.15;;;-2.90;99.90;;;;;;5028607;28;20558;-73
2021/12/10 06:01:02;;;;;;;17.08;8.40;;;-2.90;99.90;;;;;;5028733;28;20077;-73
2021/12/10 06:03:37;;;;;;;16.17;9.02;;;-2.90;99.90;;;;;;5013772;28;20146;-73
2021/12/10 06:06:08;;;;;;;15.15;7.65;;;-2.90;99.90;;;;;;5030747;28;20065;-73
2021/12/10 06:08:40;;;;;;;15.85;9.63;;;-2.90;99.90;;;;;;5030525;28;20061;-73
2021/12/10 06:11:07;;;;;;;15.55;8.63;;;-2.90;99.90;;;;;;5012622;28;20073;-73
2021/12/10 06:13:34;;;;;;;15.50;8.48;;;-2.90;99.90;;;;;;5021064;28;20125;-73
2021/12/10 06:16:04;;;;;;;9.77;6.15;;;-2.90;99.90;;;;;;5044461;28;20072;-72
2021/12/10 06:18:30;;;;;;;10.60;5.25;;;-2.90;99.90;;;;;;5028812;28;20128;-73
2021/12/10 06:20:57;;;;;;;9.50;4.80;;;-2.80;99.90;;;;;;5027861;28;20076;-72
2021/12/10 06:23:29;;;;;;;8.38;5.93;;;-2.90;99.90;;;;;;5043429;28;20151;-72
2021/12/10 06:25:56;;;;;;;7.28;4.28;;;-2.90;99.90;;;;;;5051578;28;20079;-72
2021/12/10 06:28:28;;;;;;;6.07;4.15;;;-3.00;99.90;;;;;;5037436;28;20506;-72
2021/12/10 06:30:55;;;;;;;10.73;6.60;;;-3.00;99.90;;;;;;5044515;28;20107;-73
2021/12/10 06:33:33;;;;;;;7.38;4.70;;;-3.00;99.90;;;;;;5047100;28;20454;-72
2021/12/10 06:36:06;;;;;;;9.32;4.90;;;-3.10;99.90;;;;;;5046515;28;20139;-72
2021/12/10 06:38:38;;;;;;;6.45;4.20;;;-3.10;99.90;;;;;;5040529;28;20463;-73
2021/12/10 06:41:11;;;;;;;6.07;4.15;;;-3.20;99.90;;;;;;5028135;28;20125;-73
2021/12/10 06:43:37;;;;;;;7.65;5.15;;;-3.20;99.90;;;;;;5052447;28;20076;-73
2021/12/10 06:46:10;;;;;;;7.38;4.28;;;-3.30;99.90;;;;;;5018275;28;20474;-73
2021/12/10 06:48:37;;;;;;;7.60;3.85;;;-3.30;99.90;;;;;;5032641;28;20046;-73
2021/12/10 06:51:14;;;;;;;7.40;4.00;;;-3.40;99.90;;;;;;5031305;28;20049;-73
2021/12/10 06:53:46;;;;;;;8.48;5.18;;;-3.40;99.90;;;;;;5032514;28;20124;-73
2021/12/10 06:56:20;;;;;;;8.07;5.68;;;-3.50;99.90;;;;;;5041412;28;20045;-73
2021/12/10 06:58:46;;;;;;;13.38;7.28;;;-3.50;99.90;;;;;;5040261;28;20119;-73
2021/12/10 07:01:28;;;;;;;8.10;5.50;;;-3.60;99.90;;;;;;5025234;28;20123;-73
2021/12/10 07:04:04;;;;;;;8.57;5.47;;;-3.60;99.90;;;;;;5031445;28;20046;-73
2021/12/10 07:06:38;;;;;;;7.55;4.82;;;-3.70;99.90;;;;;;5032455;28;20116;-73
2021/12/10 07:09:19;;;;;;;6.25;3.80;;;-3.70;99.90;;;;;;5033155;28;20046;-72
2021/12/10 07:11:53;;;;;;;6.80;4.00;;;-3.70;99.90;;;;;;5027731;28;20040;-72
2021/12/10 07:14:20;;;;;;;8.48;4.22;;;-3.80;99.90;;;;;;5053181;28;20377;-72
2021/12/10 07:16:52;;;;;;;4.45;3.45;;;-3.80;99.90;;;;;;5051760;28;20525;-72
2021/12/10 07:19:26;;;;;;;5.65;3.25;;;-3.80;99.90;;;;;;5052907;28;20139;-73
2021/12/10 07:21:58;;;;;;;8.93;4.22;;;-3.80;99.90;;;;;;5038169;28;20072;-73
2021/12/10 07:24:29;;;;;;;9.88;4.90;;;-3.80;99.90;;;;;;5048746;28;20140;-72
2021/12/10 07:26:57;;;;;;;7.93;5.07;;;-3.80;99.90;;;;;;5041186;28;20192;-73
2021/12/10 07:29:29;;;;;;;10.57;5.65;;;-3.80;99.90;;;;;;5031042;28;20099;-73
2021/12/10 07:32:01;;;;;;;6.65;4.95;;;-3.80;99.90;;;;;;5037333;28;20124;-74
2021/12/10 07:34:33;;;;;;;12.63;7.60;;;-3.80;99.90;;;;;;5041957;28;20702;-73
2021/12/10 07:37:07;;;;;;;9.52;6.10;;;-3.70;99.90;;;;;;5028405;28;20490;-72
2021/12/10 07:39:39;;;;;;;9.07;5.35;;;-3.70;99.90;;;;;;5040884;28;20144;-73
2021/12/10 07:42:11;;;;;;;6.15;4.22;;;-3.70;99.90;;;;;;5035196;28;20047;-73
2021/12/10 07:44:38;;;;;;;5.95;4.75;;;-3.80;99.90;;;;;;5039085;28;20128;-72
2021/12/10 07:47:09;;;;;;;7.72;4.25;;;-3.90;99.90;;;;;;5044530;28;20069;-73
2021/12/10 07:49:38;;;;;;;8.65;5.03;;;-3.80;99.90;;;;;;5041474;28;20040;-72
2021/12/10 07:52:17;;;;;;;13.30;7.95;;;-3.80;99.90;;;;;;5034295;28;20095;-73
2021/12/10 07:54:46;;;;;;;19.27;10.27;;;-3.80;99.90;;;;;;5046441;28;20140;-73
2021/12/10 07:57:19;;;;;;;19.15;10.82;;;-3.80;99.90;;;;;;5039448;28;20049;-73
2021/12/10 07:59:51;;;;;;;16.88;10.60;;;-3.70;99.90;;;;;;5022837;28;20069;-72
2021/12/10 08:02:23;;;;;;;22.73;12.25;;;-3.60;99.90;;;;;;5046804;28;20106;-72
2021/12/10 08:04:56;;;;;;;18.02;10.10;;;-3.60;99.90;;;;;;5020836;28;20040;-72
2021/12/10 08:07:28;;;;;;;10.38;7.53;;;-3.50;99.90;;;;;;5042247;28;20081;-72
2021/12/10 08:10:00;;;;;;;15.00;7.63;;;-3.50;99.90;;;;;;5043761;28;20037;-72
2021/12/10 08:12:32;;;;;;;13.88;7.85;;;-3.50;99.90;;;;;;5032996;28;20124;-72
2021/12/10 08:14:58;;;;;;;19.98;9.45;;;-3.50;99.90;;;;;;5045396;28;20072;-72
2021/12/10 08:17:26;;;;;;;15.43;9.82;;;-3.40;99.90;;;;;;5022345;28;20053;-72
2021/12/10 08:19:58;;;;;;;11.75;7.80;;;-3.40;99.90;;;;;;5037281;28;20069;-72
2021/12/10 08:22:30;;;;;;;14.43;8.05;;;-3.30;99.90;;;;;;5046548;28;20119;-72
2021/12/10 08:24:57;;;;;;;18.50;8.65;;;-3.30;99.90;;;;;;5018485;28;20474;-72
2021/12/10 08:27:29;;;;;;;13.35;8.27;;;-3.30;99.90;;;;;;5042198;28;20571;-72
2021/12/10 08:30:03;;;;;;;12.95;7.93;;;-3.20;99.90;;;;;;5038861;28;20030;-73
2021/12/10 08:32:36;;;;;;;22.38;10.55;;;-3.10;99.90;;;;;;5030071;28;20422;-72
2021/12/10 08:35:12;;;;;;;20.00;10.57;;;-3.10;99.90;;;;;;5027877;28;20495;-72
2021/12/10 08:37:44;;;;;;;12.52;8.00;;;-3.00;99.90;;;;;;5020632;28;20128;-73
2021/12/10 08:40:20;;;;;;;16.02;8.23;;;-3.00;99.90;;;;;;5023631;28;20033;-72
2021/12/10 08:42:53;;;;;;;19.13;9.90;;;-2.90;99.90;;;;;;5009096;28;20162;-72
2021/12/10 08:45:21;;;;;;;14.25;7.88;;;-2.90;99.90;;;;;;5009847;28;20149;-73
2021/12/10 08:47:54;;;;;;;;;;;-2.80;99.90;;;;;;5009355;28;20152;-72
2021/12/10 08:50:24;;;;;;;22.83;12.93;;;-2.70;99.90;;;;;;5010640;28;19965;-73
2021/12/10 08:53:08;;;;;;;24.58;13.07;;;-2.70;99.90;;;;;;5007965;28;20100;-73
2021/12/10 08:55:43;;;;;;;17.58;10.70;;;-2.60;99.90;;;;;;5011356;28;20060;-73
2021/12/10 08:58:16;;;;;;;11.25;7.03;;;-2.50;99.90;;;;;;4994438;28;20129;-72
2021/12/10 09:00:55;;;;;;;10.30;4.72;;;-2.50;99.90;;;;;;5010712;28;20132;-73
2021/12/10 09:03:26;;;;;;;8.27;4.25;;;-2.40;99.90;;;;;;5010201;28;20411;-73
2021/12/10 09:05:54;;;;;;;6.13;3.92;;;-2.40;99.90;;;;;;5009928;28;20531;-72
2021/12/10 09:08:25;;;;;;;19.52;9.57;;;-2.30;99.90;;;;;;5010089;28;20046;-73
2021/12/10 09:10:57;;;;;;;13.55;6.13;;;-2.20;99.90;;;;;;5010774;28;20125;-73
2021/12/10 09:13:29;;;;;;;14.93;6.80;;;-2.00;99.90;;;;;;5015081;28;20132;-73
2021/12/10 09:16:07;;;;;;;11.52;6.18;;;-2.00;99.90;;;;;;5014533;28;20109;-72
2021/12/10 09:18:40;;;;;;;14.90;6.97;;;-2.00;99.90;;;;;;5029466;28;20136;-73
2021/12/10 09:21:12;;;;;;;47.28;26.85;;;-2.00;99.90;;;;;;5029009;28;20077;-72
2021/12/10 09:23:39;;;;;;;36.17;18.45;;;-2.10;99.90;;;;;;5029891;28;20136;-72
2021/12/10 09:26:15;;;;;;;11.30;7.93;;;-2.20;99.90;;;;;;5031200;28;20129;-72
2021/12/10 09:28:47;;;;;;;11.75;6.05;;;-2.30;99.90;;;;;;5030144;28;20112;-72
2021/12/10 09:31:15;;;;;;;8.35;5.05;;;-2.30;99.90;;;;;;5029782;28;20435;-73
2021/12/10 09:33:47;;;;;;;10.10;5.10;;;-2.30;99.90;;;;;;5014493;28;20045;-72
2021/12/10 09:36:19;;;;;;;9.45;5.15;;;-2.30;99.90;;;;;;5029928;28;20816;-73
2021/12/10 09:38:48;;;;;;;7.93;4.95;;;-2.20;99.90;;;;;;5029873;28;20140;-73
2021/12/10 09:41:21;;;;;;;53.42;23.70;;;-2.10;99.90;;;;;;5029258;28;20084;-73
2021/12/10 09:43:53;;;;;;;37.50;18.55;;;-2.00;99.90;;;;;;5029820;28;20137;-73
2021/12/10 09:46:25;;;;;;;33.00;15.15;;;-1.90;99.90;;;;;;5031093;28;20041;-73
2021/12/10 09:48:57;;;;;;;16.38;7.70;;;-1.90;99.90;;;;;;5014165;28;20045;-73
2021/12/10 09:51:33;;;;;;;9.30;6.30;;;-1.90;99.90;;;;;;5029223;28;20124;-73
2021/12/10 09:54:04;;;;;;;9.35;5.40;;;-1.80;99.90;;;;;;5030976;28;20069;-73
2021/12/10 09:56:41;;;;;;;7.80;5.15;;;-1.80;99.90;;;;;;5028841;28;20042;-73
2021/12/10 09:59:16;;;;;;;8.25;5.00;;;-1.80;99.90;;;;;;5016166;28;20099;-73
2021/12/10 10:01:52;;;;;;;9.02;5.55;;;-1.80;99.90;;;;;;5033952;28;20112;-73
2021/12/10 10:04:26;;;;;;;9.68;5.97;;;-1.80;99.90;;;;;;5034805;28;20045;-73
2021/12/10 10:07:06;;;;;;;9.65;5.90;;;-1.70;99.90;;;;;;5034372;28;20069;-73
2021/12/10 10:09:33;;;;;;;13.43;7.30;;;-1.60;99.90;;;;;;5033851;28;20061;-73
2021/12/10 10:12:06;;;;;;;16.92;9.23;;;-1.60;99.90;;;;;;5016133;28;20076;-72
2021/12/10 10:14:34;;;;;;;16.17;7.70;;;-1.50;99.90;;;;;;5033519;28;20065;-73
2021/12/10 10:17:10;;;;;;;11.57;8.35;;;-1.40;99.90;;;;;;5034563;28;20120;-73
2021/12/10 10:19:43;;;;;;;15.23;8.30;;;-1.40;99.90;;;;;;5034393;28;20454;-73
2021/12/10 10:22:13;;;;;;;13.25;8.35;;;-1.30;99.90;;;;;;5033273;28;20133;-73
2021/12/10 10:24:45;;;;;;;7.35;5.85;;;-1.30;99.90;;;;;;5033582;28;20045;-73
2021/12/10 10:27:30;;;;;;;8.15;4.85;;;-1.20;99.90;;;;;;5033459;28;20504;-73
2021/12/10 10:30:17;;;;;;;11.20;4.82;;;-1.20;99.90;;;;;;5033156;28;20037;-72
2021/12/10 10:32:49;;;;;;;8.52;6.35;;;-1.20;99.90;;;;;;5032859;28;20128;-73
2021/12/10 10:35:32;;;;;;;12.18;6.72;;;-1.10;99.90;;;;;;5017339;28;20041;-72
2021/12/10 10:38:00;;;;;;;11.57;7.00;;;-1.20;99.90;;;;;;5034927;28;20120;-73
2021/12/10 10:40:37;;;;;;;12.75;7.95;;;-1.20;99.90;;;;;;5033609;28;20144;-73
2021/12/10 10:43:04;;;;;;;10.35;7.82;;;-1.10;99.90;;;;;;5033235;28;20065;-73
2021/12/10 10:45:42;;;;;;;9.45;6.72;;;-1.10;99.90;;;;;;5035040;28;20071;-73
2021/12/10 10:48:16;;;;;;;11.60;8.43;;;-1.00;99.90;;;;;;5032686;28;20044;-73
2021/12/10 10:50:50;;;;;;;12.35;7.60;;;-0.90;99.90;;;;;;5033170;28;20132;-73
2021/12/10 10:53:27;;;;;;;12.75;7.90;;;-0.80;99.90;;;;;;5034299;28;20037;-73
2021/12/10 10:56:10;;;;;;;16.25;9.95;;;-0.80;99.90;;;;;;5017264;28;20038;-73
2021/12/10 10:58:54;;;;;;;13.55;9.05;;;-0.80;99.90;;;;;;5033682;28;20124;-73
2021/12/10 11:01:41;;;;;;;16.08;9.10;;;-0.90;99.90;;;;;;5032967;28;20076;-73
2021/12/10 11:04:27;;;;;;;11.38;7.70;;;-0.80;99.90;;;;;;5033008;28;20124;-73
2021/12/10 11:07:20;;;;;;;10.93;7.65;;;-0.90;99.90;;;;;;5033213;28;20399;-73
2021/12/10 11:09:56;;;;;;;12.00;7.53;;;-0.80;99.90;;;;;;5032522;28;20053;-73
2021/12/10 11:12:34;;;;;;;10.82;7.65;;;-0.70;99.90;;;;;;5016408;28;20141;-74
2021/12/10 11:15:06;;;;;;;9.80;6.88;;;-0.60;99.90;;;;;;5033748;28;20045;-73
2021/12/10 11:17:46;;;;;;;14.15;7.57;;;-0.50;99.90;;;;;;5032511;28;20479;-73
2021/12/10 11:20:26;;;;;;;10.05;6.55;;;-0.50;99.90;;;;;;5032448;28;20141;-73
2021/12/10 11:23:05;;;;;;;9.75;5.57;;;-0.50;99.90;;;;;;5030460;28;20523;-73
2021/12/10 11:25:41;;;;;;;11.82;7.50;;;-0.50;99.90;;;;;;5031292;28;20132;-73
2021/12/10 11:28:17;;;;;;;16.50;10.85;;;-0.60;99.90;;;;;;5032485;28;20049;-73
2021/12/10 11:30:51;;;;;;;11.88;8.02;;;-0.70;99.90;;;;;;5029790;28;20041;-73
2021/12/10 11:33:25;;;;;;;10.88;7.93;;;-0.70;99.90;;;;;;5031649;28;20128;-73
2021/12/10 11:35:59;;;;;;;10.25;7.55;;;-0.80;99.90;;;;;;5015378;28;20045;-73
2021/12/10 11:38:33;;;;;;;8.43;6.45;;;-0.90;99.90;;;;;;5016767;28;20179;-73
2021/12/10 11:41:11;;;;;;;8.70;6.05;;;-0.50;99.90;;;;;;5031648;28;20045;-73
2021/12/10 11:47:13;;;;;;;8.38;6.18;;;-0.10;99.90;;;;;;5012591;28;20496;-71
2021/12/10 11:49:41;;;;;;;8.70;5.82;;;-0.20;99.90;;;;;;5015569;28;20492;-73
2021/12/10 11:52:14;;;;;;;12.20;7.88;;;-0.30;99.90;;;;;;5027580;28;20164;-73
2021/12/10 11:54:55;;;;;;;14.32;8.52;;;-0.30;99.90;;;;;;5019493;28;20040;-71
2021/12/10 11:57:32;;;;;;;12.63;7.88;;;-0.30;99.90;;;;;;5040198;28;20102;-73
2021/12/10 12:00:09;;;;;;;18.33;10.10;;;-0.30;99.90;;;;;;5037044;28;20064;-74
2021/12/10 12:02:54;;;;;;;15.73;9.57;;;-0.30;99.90;;;;;;5032771;28;20500;-73
2021/12/10 12:05:33;;;;;;;12.00;7.93;;;-0.40;99.90;;;;;;5030409;28;20148;-74
2021/12/10 12:08:04;;;;;;;11.88;7.28;;;-0.30;99.90;;;;;;5012308;28;20212;-73
2021/12/10 12:10:40;;;;;;;15.18;9.43;;;-0.30;99.90;;;;;;5022570;28;20128;-73
2021/12/10 12:13:33;;;;;;;27.80;13.82;;;-0.30;99.90;;;;;;5031292;28;20169;-74
2021/12/10 12:16:09;;;;;;;24.98;13.70;;;-0.20;99.90;;;;;;5030414;28;20480;-73
2021/12/10 12:18:52;;;;;;;12.93;8.82;;;-0.20;99.90;;;;;;5024055;28;20104;-73
2021/12/10 12:27:08;;;;;;;12.90;7.38;;;-0.10;99.90;;;;;;5012371;28;20080;-73
2021/12/10 12:29:55;;;;;;;12.18;7.47;;;-0.10;99.90;;;;;;5010130;28;20132;-72
2021/12/10 12:32:33;;;;;;;9.07;7.03;;;-0.20;99.90;;;;;;5021291;28;20072;-73
2021/12/10 12:35:19;;;;;;;12.80;7.03;;;-0.20;99.90;;;;;;5020093;28;20068;-73
2021/12/10 12:38:13;;;;;;;10.05;6.50;;;-0.20;99.90;;;;;;5019041;28;20077;-73
2021/12/10 12:40:47;;;;;;;9.88;7.53;;;-0.30;99.90;;;;;;5021987;28;20050;-73
2021/12/10 12:43:19;;;;;;;11.57;7.32;;;-0.30;99.90;;;;;;5022898;28;20557;-73
2021/12/10 12:45:51;;;;;;;15.57;9.95;;;-0.30;99.90;;;;;;5024329;28;20451;-73
2021/12/10 12:48:19;;;;;;;17.88;9.85;;;-0.30;99.90;;;;;;5004474;28;20060;-73
2021/12/10 12:50:51;;;;;;;12.63;8.48;;;-0.30;99.90;;;;;;5016966;28;20202;-73
2021/12/10 12:53:23;;;;;;;12.27;7.43;;;-0.30;99.90;;;;;;5024448;28;20088;-73
2021/12/10 12:55:51;;;;;;;8.18;5.90;;;-0.30;99.90;;;;;;5022840;28;20072;-73
2021/12/10 12:58:32;;;;;;;8.02;5.53;;;-0.30;99.90;;;;;;5022231;28;20061;-73
2021/12/10 13:01:09;;;;;;;9.35;5.75;;;-0.30;99.90;;;;;;5026293;28;20144;-73
2021/12/10 13:03:49;;;;;;;15.57;9.18;;;-0.30;99.90;;;;;;5028710;28;20405;-74
2021/12/10 13:06:16;;;;;;;8.10;5.80;;;-0.30;99.90;;;;;;5025103;28;20667;-73
2021/12/10 13:09:18;;;;;;;9.60;6.50;;;-0.30;99.90;;;;;;5003323;28;20066;-73
2021/12/10 13:14:35;;;;;;;12.85;8.65;;;-0.40;99.90;;;;;;5021047;28;20041;-74
2021/12/10 13:17:21;;;;;;;12.77;7.97;;;-0.40;99.90;;;;;;5020263;28;20141;-71
2021/12/10 13:19:52;;;;;;;9.63;7.30;;;-0.20;99.90;;;;;;5022388;28;20068;-74
2021/12/10 13:22:28;;;;;;;10.52;7.20;;;0.00;99.90;;;;;;5035709;28;20123;-73
2021/12/10 13:25:00;;;;;;;6.53;4.85;;;0.00;99.90;;;;;;5034306;28;20132;-74
2021/12/10 13:27:33;;;;;;;7.05;4.95;;;-0.10;99.90;;;;;;5013227;28;20129;-73
2021/12/10 13:30:00;;;;;;;6.13;4.22;;;-0.10;99.90;;;;;;5029953;28;20136;-73
2021/12/10 13:32:27;;;;;;;7.05;4.82;;;-0.20;99.90;;;;;;5030282;28;20042;-73
2021/12/10 13:34:59;;;;;;;4.88;3.13;;;-0.20;99.90;;;;;;5014295;28;20034;-74
2021/12/10 13:37:32;;;;;;;6.50;3.28;;;-0.20;99.90;;;;;;5029851;28;20403;-73
2021/12/10 13:40:04;;;;;;;9.98;5.60;;;-0.20;99.90;;;;;;5014207;28;20044;-73